Time;durP1;ratioP1;P1;durP2;ratioP2;P2;SDS_P1;SDS_P2;PMS_P1;PMS_P2;Temp;Humidity;BMP_temperature;BMP_pressure;BME280_temperature;BME280_humidity;BME280_pressure;Samples;Min_cycle;Max_cycle;Signal;HPM_P1;HPM_P2
2022/01/10 00:00:19;;;;;;;26.87;9.83;;;3.40;1.00;;;;;;5051795;28;20519;-61
2022/01/10 00:02:49;;;;;;;24.10;9.43;;;3.40;1.00;;;;;;5051970;28;20210;-62
2022/01/10 00:05:16;;;;;;;24.23;10.20;;;3.40;1.00;;;;;;5051934;28;20436;-62
2022/01/10 00:07:43;;;;;;;23.73;10.07;;;3.30;1.00;;;;;;5051921;28;20634;-62
2022/01/10 00:10:10;;;;;;;22.40;9.97;;;3.30;1.00;;;;;;5051701;28;20239;-62
2022/01/10 00:12:37;;;;;;;17.93;9.67;;;3.30;1.00;;;;;;5051974;28;20447;-62
2022/01/10 00:15:05;;;;;;;17.93;9.60;;;3.30;1.00;;;;;;5051631;28;20707;-62
2022/01/10 00:17:33;;;;;;;15.37;8.63;;;3.30;1.00;;;;;;5051595;28;20472;-62
2022/01/10 00:19:59;;;;;;;30.53;11.57;;;3.20;1.00;;;;;;5051977;28;20257;-61
2022/01/10 00:22:26;;;;;;;26.23;10.73;;;3.10;1.00;;;;;;5051814;28;20267;-61
2022/01/10 00:24:53;;;;;;;23.80;10.27;;;3.00;1.00;;;;;;5051641;28;20618;-61
2022/01/10 00:27:20;;;;;;;22.03;10.77;;;3.00;1.00;;;;;;5051581;28;20449;-61
2022/01/10 00:29:46;;;;;;;20.70;10.90;;;3.00;1.00;;;;;;5051435;28;20729;-61
2022/01/10 00:32:13;;;;;;;26.80;11.00;;;3.00;1.00;;;;;;5051485;28;20460;-62
2022/01/10 00:34:41;;;;;;;23.27;10.23;;;3.00;1.00;;;;;;5051453;28;20926;-62
2022/01/10 00:37:08;;;;;;;27.13;10.70;;;2.90;1.00;;;;;;5051622;28;20448;-61
2022/01/10 00:39:35;;;;;;;29.20;10.90;;;2.80;1.00;;;;;;5051323;28;20510;-61
2022/01/10 00:42:01;;;;;;;28.47;11.50;;;2.70;1.00;;;;;;5051389;28;20448;-61
2022/01/10 00:44:31;;;;;;;29.87;11.73;;;2.60;1.00;;;;;;5051440;28;20467;-61
2022/01/10 00:46:58;;;;;;;22.23;10.53;;;2.60;1.00;;;;;;5051132;28;20514;-62
2022/01/10 00:49:24;;;;;;;21.90;11.17;;;2.60;1.00;;;;;;5051257;28;21004;-62
2022/01/10 00:51:52;;;;;;;22.43;9.47;;;2.50;1.00;;;;;;5051453;28;20460;-62
2022/01/10 00:54:19;;;;;;;24.87;11.87;;;2.40;1.00;;;;;;5054759;28;20971;-61
2022/01/10 00:56:46;;;;;;;25.27;10.90;;;2.40;1.00;;;;;;5055043;28;20443;-60
2022/01/10 00:59:13;;;;;;;26.97;11.50;;;2.40;1.00;;;;;;5055316;28;20472;-61
2022/01/10 01:01:39;;;;;;;27.90;12.43;;;2.30;1.00;;;;;;5054815;28;20455;-60
2022/01/10 01:04:07;;;;;;;27.97;13.03;;;2.30;1.00;;;;;;5055499;28;20824;-61
2022/01/10 01:06:33;;;;;;;31.60;12.93;;;2.20;1.00;;;;;;5055203;28;20455;-60
2022/01/10 01:09:06;;;;;;;25.00;12.63;;;2.20;1.00;;;;;;5054665;28;20452;-61
2022/01/10 01:12:02;;;;;;;34.43;14.60;;;2.20;1.00;;;;;;5055159;28;20463;-61
2022/01/10 01:14:49;;;;;;;30.07;13.00;;;2.20;1.00;;;;;;5056083;28;20460;-61
2022/01/10 01:17:32;;;;;;;27.93;12.70;;;2.10;1.00;;;;;;5055194;28;20451;-62
2022/01/10 01:20:29;;;;;;;32.33;14.07;;;2.10;1.00;;;;;;5055348;28;20503;-62
2022/01/10 01:25:42;;;;;;;24.10;12.17;;;2.10;1.00;;;;;;5056350;28;20562;-63
2022/01/10 01:28:09;;;;;;;29.17;12.87;;;2.00;1.00;;;;;;5056127;28;20456;-61
2022/01/10 01:30:35;;;;;;;33.47;13.67;;;2.00;1.00;;;;;;5054376;28;20484;-62
2022/01/10 01:33:02;;;;;;;28.20;13.00;;;2.00;1.00;;;;;;5054699;28;20502;-59
2022/01/10 01:35:29;;;;;;;26.73;13.70;;;1.90;1.00;;;;;;5054965;28;20463;-61
2022/01/10 01:37:58;;;;;;;38.70;13.93;;;1.90;1.00;;;;;;5054419;28;20448;-61
2022/01/10 01:40:27;;;;;;;30.93;14.83;;;1.90;1.00;;;;;;5054529;28;20490;-61
2022/01/10 01:42:56;;;;;;;27.93;15.03;;;1.80;1.00;;;;;;5054437;28;20498;-62
2022/01/10 01:45:38;;;;;;;27.73;14.17;;;1.80;1.00;;;;;;5054080;28;20897;-62
2022/01/10 01:48:05;;;;;;;25.50;13.57;;;1.80;1.00;;;;;;5054155;28;20445;-61
2022/01/10 01:50:32;;;;;;;32.70;13.87;;;1.80;1.00;;;;;;5054198;28;20487;-61
2022/01/10 01:52:59;;;;;;;27.57;15.20;;;1.70;1.00;;;;;;5054047;28;20448;-61
2022/01/10 01:55:26;;;;;;;32.70;14.10;;;1.70;1.00;;;;;;5054469;28;20501;-61
2022/01/10 01:57:53;;;;;;;28.57;14.07;;;1.70;1.00;;;;;;5053890;28;20452;-61
2022/01/10 02:00:22;;;;;;;31.70;14.00;;;1.70;1.00;;;;;;5054040;28;20514;-61
2022/01/10 02:02:50;;;;;;;32.40;14.17;;;1.70;1.00;;;;;;5054264;28;20578;-61
2022/01/10 02:05:16;;;;;;;30.47;14.50;;;1.70;1.00;;;;;;5052606;28;20865;-61
2022/01/10 02:07:43;;;;;;;35.53;14.77;;;1.70;1.00;;;;;;5053820;28;20464;-60
2022/01/10 02:10:11;;;;;;;37.63;14.80;;;1.60;1.00;;;;;;5053581;28;20487;-62
2022/01/10 02:12:37;;;;;;;33.27;14.57;;;1.60;1.00;;;;;;5054056;28;20448;-61
2022/01/10 02:15:05;;;;;;;32.20;13.93;;;1.60;1.00;;;;;;5053506;28;20460;-61
2022/01/10 02:17:36;;;;;;;32.00;13.70;;;1.60;1.00;;;;;;5053601;28;20460;-61
2022/01/10 02:20:07;;;;;;;28.57;13.47;;;1.60;1.00;;;;;;5053884;28;20479;-61
2022/01/10 02:22:34;;;;;;;33.67;14.67;;;1.60;1.00;;;;;;5053473;28;20454;-61
2022/01/10 02:25:00;;;;;;;38.27;13.63;;;1.60;1.00;;;;;;5053641;28;20806;-62
2022/01/10 02:27:27;;;;;;;28.70;13.50;;;1.50;1.00;;;;;;5053382;28;20522;-62
2022/01/10 02:29:54;;;;;;;29.50;13.90;;;1.50;1.00;;;;;;5053560;28;20529;-62
2022/01/10 02:32:22;;;;;;;29.30;13.77;;;1.50;1.00;;;;;;5053692;28;20502;-61
2022/01/10 02:34:48;;;;;;;33.93;14.00;;;1.50;1.00;;;;;;5053530;28;20456;-60
2022/01/10 02:37:35;;;;;;;34.70;15.57;;;1.50;1.00;;;;;;5053051;28;20448;-61
2022/01/10 02:40:06;;;;;;;41.23;16.47;;;1.50;1.00;;;;;;5053405;28;20460;-61
2022/01/10 02:42:32;;;;;;;35.37;15.97;;;1.50;1.00;;;;;;5053483;28;20444;-61
2022/01/10 02:44:59;;;;;;;32.37;15.03;;;1.50;1.00;;;;;;5053340;28;20439;-62
2022/01/10 02:47:27;;;;;;;45.50;15.87;;;1.50;1.00;;;;;;5053018;28;21141;-61
2022/01/10 02:49:55;;;;;;;34.53;15.27;;;1.50;1.00;;;;;;5052649;28;20479;-61
2022/01/10 02:52:21;;;;;;;35.70;16.43;;;1.40;1.00;;;;;;5053179;28;20527;-62
2022/01/10 02:54:49;;;;;;;38.83;14.83;;;1.50;1.00;;;;;;5053185;28;20442;-61
2022/01/10 02:57:16;;;;;;;35.37;15.67;;;1.50;1.00;;;;;;5053309;28;20451;-62
2022/01/10 02:59:43;;;;;;;36.83;15.93;;;1.50;1.00;;;;;;5053262;28;20476;-61
2022/01/10 03:02:10;;;;;;;37.40;16.47;;;1.50;1.00;;;;;;5053029;28;20450;-61
2022/01/10 03:04:37;;;;;;;38.63;16.90;;;1.50;1.00;;;;;;5053091;28;20502;-61
2022/01/10 03:07:05;;;;;;;40.67;17.83;;;1.50;1.00;;;;;;5052652;28;20954;-60
2022/01/10 03:09:32;;;;;;;39.30;16.40;;;1.50;1.00;;;;;;5053008;28;20472;-61
2022/01/10 03:12:00;;;;;;;36.63;16.37;;;1.50;1.00;;;;;;5052767;28;20447;-62
2022/01/10 03:14:26;;;;;;;39.10;17.10;;;1.40;1.00;;;;;;5052724;28;20466;-60
2022/01/10 03:16:53;;;;;;;37.03;16.83;;;1.40;1.00;;;;;;5052198;28;20447;-61
2022/01/10 03:19:20;;;;;;;35.80;15.93;;;1.40;1.00;;;;;;5052325;28;21049;-61
2022/01/10 03:21:46;;;;;;;39.03;15.43;;;1.40;1.00;;;;;;5052961;28;20519;-61
2022/01/10 03:24:13;;;;;;;41.23;18.40;;;1.40;1.00;;;;;;5052710;28;20792;-61
2022/01/10 03:26:40;;;;;;;44.60;17.67;;;1.40;1.00;;;;;;5052376;28;20456;-61
2022/01/10 03:29:08;;;;;;;41.93;18.17;;;1.30;1.00;;;;;;5052536;28;20518;-62
2022/01/10 03:31:35;;;;;;;44.70;18.63;;;1.40;1.00;;;;;;5052399;28;20487;-61
2022/01/10 03:34:01;;;;;;;46.47;17.00;;;1.40;1.00;;;;;;5052289;28;20451;-62
2022/01/10 03:36:28;;;;;;;44.90;18.93;;;1.40;1.00;;;;;;5052308;28;20455;-62
2022/01/10 03:38:55;;;;;;;41.07;17.57;;;1.40;1.00;;;;;;5052781;28;20830;-61
2022/01/10 03:41:21;;;;;;;40.97;18.00;;;1.40;1.00;;;;;;5052567;28;20500;-61
2022/01/10 03:43:48;;;;;;;46.03;18.40;;;1.40;1.00;;;;;;5052503;28;20444;-61
2022/01/10 03:46:16;;;;;;;40.07;17.93;;;1.40;1.00;;;;;;5051983;28;20498;-61
2022/01/10 03:48:43;;;;;;;41.03;18.17;;;1.40;1.00;;;;;;5052483;28;20456;-61
2022/01/10 03:51:09;;;;;;;37.90;16.63;;;1.40;1.00;;;;;;5051890;28;20492;-61
2022/01/10 03:53:36;;;;;;;45.50;18.80;;;1.40;1.00;;;;;;5052254;28;20448;-61
2022/01/10 03:56:03;;;;;;;41.90;17.97;;;1.40;1.00;;;;;;5052418;28;20446;-60
2022/01/10 03:58:30;;;;;;;53.63;19.43;;;1.40;1.00;;;;;;5051829;28;20480;-61
2022/01/10 04:00:57;;;;;;;40.80;18.10;;;1.40;2.20;;;;;;5051632;28;20472;-61
2022/01/10 04:03:25;;;;;;;42.97;17.70;;;1.40;3.10;;;;;;5051519;28;20452;-61
2022/01/10 04:05:51;;;;;;;40.03;18.27;;;1.40;3.60;;;;;;5051947;28;20448;-61
2022/01/10 04:08:18;;;;;;;46.83;19.57;;;1.40;3.10;;;;;;5051926;28;20448;-61
2022/01/10 04:10:45;;;;;;;49.53;19.87;;;1.30;3.00;;;;;;5051662;28;20484;-62
2022/01/10 04:13:12;;;;;;;48.07;19.57;;;1.30;2.80;;;;;;5051563;28;20531;-62
2022/01/10 04:15:39;;;;;;;42.00;19.37;;;1.30;3.20;;;;;;5051667;28;20444;-61
2022/01/10 04:18:07;;;;;;;43.20;19.10;;;1.30;3.70;;;;;;5051839;28;20451;-61
2022/01/10 04:20:35;;;;;;;44.80;20.17;;;1.30;3.70;;;;;;5051628;28;20570;-60
2022/01/10 04:23:02;;;;;;;45.97;18.67;;;1.30;4.10;;;;;;5051630;28;20899;-62
2022/01/10 04:25:29;;;;;;;51.13;19.73;;;1.30;4.90;;;;;;5051582;28;20502;-62
2022/01/10 04:27:56;;;;;;;43.50;18.33;;;1.30;5.30;;;;;;5052786;28;20578;-61
2022/01/10 04:30:23;;;;;;;46.30;18.70;;;1.30;5.90;;;;;;5055924;28;20525;-61
2022/01/10 04:32:49;;;;;;;53.23;17.80;;;1.30;6.00;;;;;;5056058;28;20536;-61
2022/01/10 04:35:16;;;;;;;45.50;18.60;;;1.30;5.80;;;;;;5056675;28;20509;-61
2022/01/10 04:37:44;;;;;;;49.83;18.83;;;1.30;5.50;;;;;;5056005;28;20878;-62
2022/01/10 04:40:12;;;;;;;49.07;18.33;;;1.20;5.20;;;;;;5056882;28;20547;-61
2022/01/10 04:42:39;;;;;;;49.93;18.57;;;1.30;5.20;;;;;;5055732;28;20859;-61
2022/01/10 04:45:06;;;;;;;42.73;18.60;;;1.30;5.10;;;;;;5056917;28;20443;-61
2022/01/10 04:47:33;;;;;;;47.57;19.23;;;1.20;4.10;;;;;;5057343;28;20449;-61
2022/01/10 04:50:20;;;;;;;55.13;20.70;;;1.20;3.40;;;;;;5056422;28;20528;-61
2022/01/10 04:52:49;;;;;;;49.43;20.00;;;1.10;2.80;;;;;;5055224;28;20494;-62
2022/01/10 04:55:16;;;;;;;53.97;20.03;;;1.10;2.70;;;;;;5055103;28;21011;-62
2022/01/10 04:57:43;;;;;;;48.10;19.30;;;1.10;2.80;;;;;;5055750;28;20448;-61
2022/01/10 05:00:12;;;;;;;43.83;19.63;;;1.10;2.50;;;;;;5055442;28;20516;-61
2022/01/10 05:02:39;;;;;;;48.93;20.27;;;1.10;2.40;;;;;;5055473;28;20500;-61
2022/01/10 05:05:07;;;;;;;49.93;19.77;;;1.10;2.50;;;;;;5055231;28;20456;-61
2022/01/10 05:07:33;;;;;;;50.03;20.70;;;1.10;3.00;;;;;;5054943;28;20505;-61
2022/01/10 05:10:01;;;;;;;57.50;21.03;;;1.10;3.20;;;;;;5055221;28;20476;-61
2022/01/10 05:12:29;;;;;;;44.67;19.47;;;1.10;3.40;;;;;;5054978;28;20492;-60
2022/01/10 05:14:55;;;;;;;43.60;19.63;;;1.10;3.30;;;;;;5054908;28;20462;-61
2022/01/10 05:17:24;;;;;;;40.53;19.23;;;1.10;3.40;;;;;;5054394;28;20455;-61
2022/01/10 05:19:51;;;;;;;53.03;20.03;;;1.10;3.10;;;;;;5054555;28;20491;-62
2022/01/10 05:22:18;;;;;;;49.63;19.70;;;1.10;2.80;;;;;;5054872;28;20504;-62
2022/01/10 05:24:44;;;;;;;41.67;19.53;;;1.10;2.60;;;;;;5054845;28;20485;-61
2022/01/10 05:27:13;;;;;;;53.27;20.40;;;1.00;2.00;;;;;;5054493;28;20836;-62
2022/01/10 05:29:39;;;;;;;45.20;20.70;;;1.00;1.40;;;;;;5051159;28;20485;-61
2022/01/10 05:32:06;;;;;;;41.17;18.60;;;0.90;1.00;;;;;;5054310;28;20479;-61
2022/01/10 05:34:33;;;;;;;45.40;20.33;;;0.90;1.00;;;;;;5054114;28;20506;-62
2022/01/10 05:37:00;;;;;;;47.80;20.47;;;0.80;1.00;;;;;;5054312;28;21270;-61
2022/01/10 05:39:26;;;;;;;48.40;21.07;;;0.80;1.00;;;;;;5054522;28;20878;-62
2022/01/10 05:41:54;;;;;;;51.70;22.63;;;0.80;1.00;;;;;;5054558;28;20445;-60
2022/01/10 05:44:23;;;;;;;45.40;20.60;;;0.90;1.00;;;;;;5054461;28;20944;-62
2022/01/10 05:46:50;;;;;;;51.93;20.47;;;0.90;1.80;;;;;;5053877;28;20450;-62
2022/01/10 05:49:24;;;;;;;50.53;21.33;;;0.90;2.10;;;;;;5054548;28;20479;-62
2022/01/10 05:51:51;;;;;;;47.03;19.27;;;0.90;2.40;;;;;;5054257;28;20486;-62
2022/01/10 05:54:18;;;;;;;48.70;21.17;;;0.90;3.00;;;;;;5054313;28;20489;-62
2022/01/10 05:56:45;;;;;;;44.93;20.33;;;0.90;3.30;;;;;;5054039;28;20454;-62
2022/01/10 05:59:11;;;;;;;49.00;22.87;;;0.90;3.20;;;;;;5054171;28;20472;-59
2022/01/10 06:01:39;;;;;;;58.47;25.00;;;0.90;3.00;;;;;;5053575;28;20500;-62
2022/01/10 06:04:06;;;;;;;45.57;23.03;;;0.80;3.30;;;;;;5054180;28;20542;-62
2022/01/10 06:06:32;;;;;;;53.30;23.33;;;0.80;3.80;;;;;;5054143;28;20451;-61
2022/01/10 06:08:59;;;;;;;47.97;21.90;;;0.90;4.50;;;;;;5053663;28;20476;-62
2022/01/10 06:11:26;;;;;;;50.30;21.43;;;0.90;5.00;;;;;;5053676;28;20483;-62
2022/01/10 06:13:52;;;;;;;47.60;21.03;;;0.80;4.90;;;;;;5053548;28;20930;-64
2022/01/10 06:16:19;;;;;;;51.47;21.77;;;0.80;4.90;;;;;;5048642;28;20478;-64
2022/01/10 06:18:47;;;;;;;55.57;22.63;;;0.90;6.10;;;;;;5066301;28;20461;-60
2022/01/10 06:21:14;;;;;;;46.87;21.40;;;0.90;6.70;;;;;;5066812;28;20500;-61
2022/01/10 06:23:41;;;;;;;48.13;21.00;;;0.90;6.60;;;;;;5073368;28;20457;-61
2022/01/10 06:26:07;;;;;;;51.40;21.87;;;0.90;6.60;;;;;;5072703;28;20504;-61
2022/01/10 06:28:34;;;;;;;48.00;21.73;;;0.90;7.00;;;;;;5073698;28;20456;-61
2022/01/10 06:31:01;;;;;;;54.43;22.20;;;0.90;7.10;;;;;;5073102;28;20507;-62
2022/01/10 06:33:27;;;;;;;49.80;21.27;;;0.90;7.70;;;;;;5073426;28;20496;-62
2022/01/10 06:35:55;;;;;;;61.20;25.47;;;0.80;7.70;;;;;;5072967;28;20506;-61
2022/01/10 06:38:22;;;;;;;63.43;25.90;;;0.90;9.20;;;;;;5063437;28;20450;-62
2022/01/10 06:40:49;;;;;;;62.47;24.57;;;0.90;10.50;;;;;;5053140;28;20477;-63
2022/01/10 06:43:16;;;;;;;58.93;24.67;;;1.00;12.40;;;;;;5052491;28;20915;-62
2022/01/10 06:45:42;;;;;;;50.87;22.70;;;0.90;13.50;;;;;;5052598;28;20459;-65
2022/01/10 06:48:10;;;;;;;47.83;23.60;;;1.00;15.80;;;;;;5052714;28;20879;-61
2022/01/10 06:50:38;;;;;;;50.47;23.43;;;0.90;16.10;;;;;;5052331;28;20472;-61
2022/01/10 06:53:06;;;;;;;61.03;22.47;;;0.90;17.00;;;;;;5052716;28;20555;-61
2022/01/10 06:55:33;;;;;;;61.17;24.07;;;0.90;17.20;;;;;;5052395;28;20486;-61
2022/01/10 06:58:00;;;;;;;54.57;22.13;;;0.90;17.20;;;;;;5052534;28;20463;-63
2022/01/10 07:00:26;;;;;;;56.10;21.57;;;0.80;17.20;;;;;;5053124;28;20470;-65
2022/01/10 07:02:53;;;;;;;44.57;20.27;;;0.80;16.40;;;;;;5053027;28;20455;-64
2022/01/10 07:05:20;;;;;;;49.93;21.13;;;0.70;15.60;;;;;;5052355;28;20454;-64
2022/01/10 07:07:47;;;;;;;44.93;20.27;;;0.70;15.20;;;;;;5052345;28;20460;-64
2022/01/10 07:10:15;;;;;;;49.10;21.63;;;0.60;14.70;;;;;;5052369;28;20539;-64
2022/01/10 07:12:41;;;;;;;50.00;20.27;;;0.60;14.50;;;;;;5052851;28;20499;-64
2022/01/10 07:15:09;;;;;;;45.10;20.87;;;0.60;14.80;;;;;;5052248;28;20915;-63
2022/01/10 07:17:36;;;;;;;51.67;22.17;;;0.60;14.80;;;;;;5051971;28;20452;-62
2022/01/10 07:20:03;;;;;;;51.33;21.47;;;0.60;14.50;;;;;;5052370;28;20476;-63
2022/01/10 07:22:30;;;;;;;41.53;19.63;;;0.60;14.50;;;;;;5052445;28;20941;-61
2022/01/10 07:24:57;;;;;;;52.93;20.00;;;0.70;14.90;;;;;;5051783;28;20459;-61
2022/01/10 07:27:25;;;;;;;58.50;20.60;;;0.60;14.50;;;;;;5051514;28;20470;-62
2022/01/10 07:29:52;;;;;;;51.37;20.33;;;0.60;14.60;;;;;;5051396;28;20476;-61
2022/01/10 07:32:19;;;;;;;55.97;21.10;;;0.70;15.30;;;;;;5052210;28;20490;-61
2022/01/10 07:34:46;;;;;;;53.27;20.50;;;0.70;15.40;;;;;;5051939;28;20451;-62
2022/01/10 07:37:15;;;;;;;45.53;21.00;;;0.70;15.50;;;;;;5051397;28;20454;-61
2022/01/10 07:39:42;;;;;;;46.70;19.17;;;0.70;15.40;;;;;;5052282;28;20524;-60
2022/01/10 07:42:09;;;;;;;53.07;22.97;;;0.70;15.60;;;;;;5051485;28;20451;-63
2022/01/10 07:44:37;;;;;;;49.17;20.30;;;0.70;15.80;;;;;;5051718;28;20509;-61
2022/01/10 07:47:04;;;;;;;49.87;19.67;;;0.70;15.60;;;;;;5051395;28;20518;-62
2022/01/10 07:49:31;;;;;;;52.37;21.10;;;0.70;15.70;;;;;;5051768;28;20482;-62
2022/01/10 07:51:58;;;;;;;54.27;21.33;;;0.70;15.80;;;;;;5051508;28;20522;-61
2022/01/10 07:54:25;;;;;;;50.13;20.50;;;0.70;15.60;;;;;;5051601;28;20457;-60
2022/01/10 07:56:52;;;;;;;56.93;23.73;;;0.70;15.60;;;;;;5051669;28;20542;-63
2022/01/10 07:59:19;;;;;;;57.27;21.60;;;0.70;16.30;;;;;;5051666;28;20486;-64
2022/01/10 08:01:47;;;;;;;57.10;23.23;;;0.80;17.10;;;;;;5051485;28;20444;-63
2022/01/10 08:04:14;;;;;;;58.53;23.20;;;0.80;18.20;;;;;;5051715;28;20447;-63
2022/01/10 08:06:41;;;;;;;54.17;22.83;;;0.90;18.80;;;;;;5052177;28;20452;-63
2022/01/10 08:09:08;;;;;;;57.47;22.70;;;0.90;19.20;;;;;;5052897;28;20927;-63
2022/01/10 08:11:35;;;;;;;62.07;24.13;;;0.90;19.70;;;;;;5051647;28;20493;-63
2022/01/10 08:14:03;;;;;;;65.93;23.47;;;0.90;20.10;;;;;;5052074;28;20462;-62
2022/01/10 08:16:31;;;;;;;54.33;23.53;;;0.90;20.70;;;;;;5054501;28;20508;-64
2022/01/10 08:18:59;;;;;;;69.53;24.80;;;0.90;21.40;;;;;;5057656;28;20428;-64
2022/01/10 08:21:26;;;;;;;70.47;24.73;;;0.90;24.10;;;;;;5054679;28;21200;-63
2022/01/10 08:23:52;;;;;;;67.10;24.03;;;1.00;25.80;;;;;;5051404;28;20579;-63
2022/01/10 08:26:20;;;;;;;61.40;24.40;;;1.00;27.40;;;;;;5051304;28;20463;-62
2022/01/10 08:28:47;;;;;;;74.97;24.27;;;1.00;28.40;;;;;;5051209;28;20488;-63
2022/01/10 08:31:14;;;;;;;54.77;21.77;;;1.10;29.50;;;;;;5051186;28;20856;-65
2022/01/10 08:33:41;;;;;;;73.93;26.17;;;1.10;30.20;;;;;;5051512;28;20484;-63
2022/01/10 08:36:10;;;;;;;65.50;23.47;;;1.20;31.70;;;;;;5050890;28;21139;-63
2022/01/10 08:38:36;;;;;;;63.07;22.67;;;1.20;31.80;;;;;;5050993;28;20455;-60
2022/01/10 08:41:03;;;;;;;57.67;23.07;;;1.30;33.50;;;;;;5051073;28;20468;-64
2022/01/10 08:43:30;;;;;;;61.90;23.07;;;1.30;35.40;;;;;;5051126;28;20448;-64
2022/01/10 08:45:57;;;;;;;56.07;22.27;;;1.40;36.70;;;;;;5051112;28;20815;-67
2022/01/10 08:48:23;;;;;;;56.87;21.27;;;1.40;36.60;;;;;;5050635;28;20799;-64
2022/01/10 08:50:51;;;;;;;58.07;22.07;;;1.40;36.50;;;;;;5051463;28;20472;-64
2022/01/10 08:53:20;;;;;;;66.33;23.20;;;1.50;38.00;;;;;;5051499;28;20484;-64
2022/01/10 08:55:47;;;;;;;63.67;23.13;;;1.60;40.50;;;;;;5051956;28;20444;-63
2022/01/10 08:58:14;;;;;;;59.40;22.40;;;1.70;42.30;;;;;;5051433;28;20472;-64
2022/01/10 09:00:40;;;;;;;50.03;21.73;;;1.80;44.20;;;;;;5050829;28;20468;-62
2022/01/10 09:03:07;;;;;;;63.27;23.03;;;2.00;46.00;;;;;;5051183;28;20452;-63
2022/01/10 09:05:34;;;;;;;43.93;20.90;;;2.00;47.00;;;;;;5050403;28;20817;-63
2022/01/10 09:08:03;;;;;;;61.53;21.73;;;2.10;48.20;;;;;;5050986;28;21180;-63
2022/01/10 09:10:31;;;;;;;58.23;22.33;;;2.10;48.80;;;;;;5051106;28;20483;-62
2022/01/10 09:12:58;;;;;;;49.13;21.07;;;2.20;48.60;;;;;;5050846;28;20484;-62
2022/01/10 09:15:25;;;;;;;53.33;21.30;;;2.20;49.40;;;;;;5053986;28;20467;-62
2022/01/10 09:17:52;;;;;;;53.77;23.17;;;2.30;50.20;;;;;;5054659;28;20451;-63
2022/01/10 09:20:19;;;;;;;54.20;22.90;;;2.40;51.40;;;;;;5054590;28;20522;-64
2022/01/10 09:22:46;;;;;;;60.30;21.83;;;2.40;52.10;;;;;;5054470;28;20490;-63
2022/01/10 09:25:13;;;;;;;54.23;20.93;;;2.50;53.30;;;;;;5054426;28;20491;-64
2022/01/10 09:27:42;;;;;;;52.63;20.03;;;2.50;54.90;;;;;;5054317;28;20518;-64
2022/01/10 09:30:10;;;;;;;51.97;20.60;;;2.60;56.50;;;;;;5053928;28;20471;-62
2022/01/10 09:32:37;;;;;;;61.27;19.90;;;2.70;57.60;;;;;;5054351;28;20492;-63
2022/01/10 09:35:04;;;;;;;61.30;20.07;;;2.70;58.60;;;;;;5053884;28;20207;-65
2022/01/10 09:37:30;;;;;;;55.00;19.50;;;2.70;58.50;;;;;;5054183;28;20437;-64
2022/01/10 09:39:57;;;;;;;68.60;21.80;;;2.80;59.80;;;;;;5053948;28;20989;-64
2022/01/10 09:42:24;;;;;;;68.03;22.47;;;2.80;60.60;;;;;;5053779;28;20455;-64
2022/01/10 09:44:53;;;;;;;69.77;21.87;;;2.80;60.80;;;;;;5054954;28;20456;-63
2022/01/10 09:47:20;;;;;;;59.53;23.23;;;2.90;61.50;;;;;;5053850;28;20448;-63
2022/01/10 09:49:47;;;;;;;58.23;20.60;;;3.00;62.70;;;;;;5053945;28;20253;-60
2022/01/10 09:52:15;;;;;;;66.83;20.53;;;3.00;61.20;;;;;;5053937;28;20480;-60
2022/01/10 09:54:42;;;;;;;64.90;22.77;;;2.90;57.90;;;;;;5053752;28;20456;-62
2022/01/10 09:57:09;;;;;;;60.97;21.97;;;3.00;55.50;;;;;;5053419;28;20456;-62
2022/01/10 09:59:36;;;;;;;63.20;22.43;;;3.00;49.20;;;;;;5053526;28;20994;-61
2022/01/10 10:02:06;;;;;;;64.87;23.27;;;3.00;40.80;;;;;;5054039;28;20209;-60
2022/01/10 10:04:36;;;;;;;67.17;22.70;;;3.00;24.90;;;;;;5053565;28;20968;-63
2022/01/10 10:07:03;;;;;;;68.80;21.53;;;2.80;8.80;;;;;;5053466;28;20279;-63
2022/01/10 10:09:31;;;;;;;56.57;22.10;;;2.80;1.00;;;;;;5053428;28;20480;-63
2022/01/10 10:11:57;;;;;;;62.80;21.63;;;2.70;1.00;;;;;;5053503;28;20456;-63
2022/01/10 10:14:25;;;;;;;61.87;21.77;;;2.80;1.00;;;;;;5053386;28;20514;-63
2022/01/10 10:16:57;;;;;;;66.43;22.33;;;2.90;1.00;;;;;;5053088;28;20252;-62
2022/01/10 10:19:28;;;;;;;68.10;22.37;;;3.00;1.00;;;;;;5053540;28;20934;-64
2022/01/10 10:21:56;;;;;;;57.00;23.27;;;3.10;1.00;;;;;;5052906;28;20848;-65
2022/01/10 10:24:26;;;;;;;48.27;20.17;;;3.10;1.00;;;;;;5052914;28;20510;-66
2022/01/10 10:26:54;;;;;;;54.13;22.93;;;3.10;1.00;;;;;;5052352;28;20452;-66
2022/01/10 10:29:21;;;;;;;56.33;22.03;;;3.20;1.00;;;;;;5053240;28;20269;-64
2022/01/10 10:31:50;;;;;;;63.47;23.27;;;3.20;1.00;;;;;;5053307;28;20229;-64
2022/01/10 10:34:20;;;;;;;52.30;20.77;;;3.20;1.00;;;;;;5052639;28;20232;-63
2022/01/10 10:37:00;;;;;;;40.07;19.07;;;3.20;1.00;;;;;;5053148;28;20246;-62
2022/01/10 10:39:27;;;;;;;41.27;18.40;;;3.20;1.00;;;;;;5053993;28;20511;-60
2022/01/10 10:41:55;;;;;;;46.37;20.03;;;3.20;1.00;;;;;;5054100;28;20210;-60
2022/01/10 10:44:21;;;;;;;44.57;18.33;;;3.30;1.00;;;;;;5053458;28;20943;-63
2022/01/10 10:46:50;;;;;;;48.70;19.13;;;3.30;1.00;;;;;;5052626;28;20483;-61
2022/01/10 10:49:19;;;;;;;51.03;20.03;;;3.40;1.00;;;;;;5052661;28;20226;-59
2022/01/10 10:51:52;;;;;;;52.27;21.50;;;3.50;1.00;;;;;;5054191;28;20579;-59
2022/01/10 10:54:19;;;;;;;51.83;20.70;;;3.60;1.00;;;;;;5052950;28;20595;-60
2022/01/10 10:56:47;;;;;;;51.80;21.07;;;3.70;1.00;;;;;;5052533;28;20219;-62
2022/01/10 10:59:14;;;;;;;51.93;20.43;;;3.80;1.00;;;;;;5052761;28;20233;-65
2022/01/10 11:01:42;;;;;;;46.23;18.07;;;3.90;1.00;;;;;;5052586;28;20210;-63
2022/01/10 11:04:11;;;;;;;41.97;17.13;;;4.00;1.00;;;;;;5052949;28;20199;-64
2022/01/10 11:06:39;;;;;;;42.63;18.43;;;3.90;1.00;;;;;;5053577;28;20689;-63
2022/01/10 11:09:12;;;;;;;40.50;18.00;;;4.00;1.00;;;;;;5052385;28;20260;-61
2022/01/10 11:11:39;;;;;;;45.60;18.03;;;4.00;1.00;;;;;;5052886;28;20301;-61
2022/01/10 11:14:06;;;;;;;39.93;16.47;;;4.10;1.00;;;;;;5052275;28;20227;-63
2022/01/10 11:16:37;;;;;;;33.83;15.17;;;4.20;1.00;;;;;;5052029;28;20216;-64
2022/01/10 11:19:12;;;;;;;29.20;15.43;;;4.40;1.00;;;;;;5032514;28;20315;-65
2022/01/10 11:21:41;;;;;;;34.50;16.73;;;4.40;1.00;;;;;;5033087;28;20220;-65
2022/01/10 11:24:09;;;;;;;27.50;14.23;;;4.50;1.00;;;;;;5032596;28;20205;-65
2022/01/10 11:26:38;;;;;;;26.70;13.53;;;4.70;1.00;;;;;;5032184;28;20206;-62
2022/01/10 11:29:08;;;;;;;36.43;15.60;;;4.80;1.00;;;;;;5032856;28;20257;-62
2022/01/10 11:31:37;;;;;;;31.43;14.00;;;4.90;1.00;;;;;;5034392;28;20208;-63
2022/01/10 11:34:04;;;;;;;26.97;13.13;;;5.00;1.00;;;;;;5038160;28;20232;-63
2022/01/10 11:36:31;;;;;;;27.37;13.00;;;5.10;1.00;;;;;;5034168;28;20205;-63
2022/01/10 11:39:00;;;;;;;21.63;11.17;;;5.10;1.00;;;;;;5036780;28;20217;-63
2022/01/10 11:41:29;;;;;;;23.63;11.10;;;5.10;99.90;;;;;;5033388;28;20221;-62
2022/01/10 11:44:03;;;;;;;29.27;11.03;;;5.10;99.90;;;;;;5032096;28;20202;-61
2022/01/10 11:46:36;;;;;;;19.23;11.43;;;5.10;99.90;;;;;;5031711;28;20248;-60
2022/01/10 11:49:04;;;;;;;23.70;11.20;;;5.10;99.90;;;;;;5035154;28;20650;-63
2022/01/10 11:51:34;;;;;;;23.33;10.10;;;5.20;99.90;;;;;;5034804;28;20205;-63
2022/01/10 11:54:22;;;;;;;20.67;10.43;;;5.20;99.90;;;;;;5033341;28;20556;-63
2022/01/10 11:56:51;;;;;;;25.40;10.77;;;5.30;99.90;;;;;;5031682;28;20643;-64
2022/01/10 11:59:23;;;;;;;21.30;9.73;;;5.30;99.90;;;;;;5031887;28;20312;-64
2022/01/10 12:01:57;;;;;;;25.53;10.23;;;5.30;99.90;;;;;;5031503;28;20209;-64
2022/01/10 12:04:29;;;;;;;23.57;10.63;;;5.40;99.90;;;;;;5032082;28;20575;-67
2022/01/10 12:06:55;;;;;;;23.73;10.20;;;5.50;99.90;;;;;;5031521;28;20273;-67
2022/01/10 12:09:23;;;;;;;22.73;9.83;;;5.50;99.90;;;;;;5031627;28;20230;-67
2022/01/10 12:11:53;;;;;;;21.40;10.20;;;5.50;99.90;;;;;;5031797;28;20205;-67
2022/01/10 12:14:20;;;;;;;20.43;9.90;;;5.60;99.90;;;;;;5031527;28;20384;-67
2022/01/10 12:16:48;;;;;;;26.60;10.33;;;5.70;99.90;;;;;;5033350;28;20205;-64
2022/01/10 12:19:15;;;;;;;17.43;8.83;;;5.70;99.90;;;;;;5032635;28;20233;-62
2022/01/10 12:21:42;;;;;;;18.03;8.60;;;5.80;99.90;;;;;;5031807;28;20206;-63
2022/01/10 12:24:12;;;;;;;23.93;9.73;;;5.80;99.90;;;;;;5031657;28;20245;-62
2022/01/10 12:26:40;;;;;;;20.70;9.17;;;5.80;82.30;;;;;;5031197;28;20202;-63
2022/01/10 12:29:10;;;;;;;20.53;9.20;;;5.90;99.90;;;;;;5031260;28;20230;-63
2022/01/10 12:31:39;;;;;;;20.70;9.00;;;5.90;77.00;;;;;;5031075;28;20210;-63
2022/01/10 12:34:08;;;;;;;18.77;9.50;;;6.00;59.10;;;;;;5031454;28;20609;-64
2022/01/10 12:36:36;;;;;;;28.80;10.57;;;6.10;56.90;;;;;;5031190;28;20206;-62
2022/01/10 12:39:06;;;;;;;22.00;10.80;;;6.20;31.60;;;;;;5031180;28;20230;-64
2022/01/10 12:41:33;;;;;;;18.43;8.33;;;6.20;1.00;;;;;;5031160;28;20301;-64
2022/01/10 12:44:00;;;;;;;23.80;10.27;;;6.20;1.00;;;;;;5031184;28;20217;-64
2022/01/10 12:46:32;;;;;;;19.13;8.47;;;6.30;38.80;;;;;;5031212;28;20336;-64
2022/01/10 12:49:02;;;;;;;17.27;8.57;;;6.40;58.00;;;;;;5033166;28;20206;-64